Time;durP1;ratioP1;P1;durP2;ratioP2;P2;SDS_P1;SDS_P2;PMS_P1;PMS_P2;Temp;Humidity;BMP_temperature;BMP_pressure;BME280_temperature;BME280_humidity;BME280_pressure;Samples;Min_cycle;Max_cycle;Signal;HPM_P1;HPM_P2
2024/04/02 00:01:07;;;;;;;2.83;1.40;;;13.20;99.90;;;;;;4898425;29;20089;-76
2024/04/02 00:03:34;;;;;;;4.47;1.58;;;13.20;99.90;;;;;;4912649;29;20048;-76
2024/04/02 00:05:59;;;;;;;2.33;1.45;;;13.20;99.90;;;;;;4898081;29;20033;-76
2024/04/02 00:08:26;;;;;;;4.63;1.77;;;13.20;99.90;;;;;;4898542;29;20686;-77
2024/04/02 00:10:52;;;;;;;3.00;1.60;;;13.10;99.90;;;;;;4896720;29;20032;-77
2024/04/02 00:13:17;;;;;;;5.65;1.92;;;13.20;99.90;;;;;;4897682;29;20364;-77
2024/04/02 00:15:45;;;;;;;1.75;1.58;;;13.10;99.90;;;;;;4897739;29;20029;-77
2024/04/02 00:18:10;;;;;;;2.65;1.60;;;13.20;99.90;;;;;;4896441;29;20103;-77
2024/04/02 00:20:36;;;;;;;6.60;2.45;;;13.10;99.90;;;;;;4898111;29;20056;-77
2024/04/02 00:23:03;;;;;;;2.58;1.40;;;13.10;99.90;;;;;;4896153;29;20087;-76
2024/04/02 00:25:29;;;;;;;2.10;1.80;;;13.10;99.90;;;;;;4896529;29;20123;-76
2024/04/02 00:27:55;;;;;;;2.17;1.95;;;13.10;99.90;;;;;;4897257;29;20124;-76
2024/04/02 00:30:27;;;;;;;4.28;2.50;;;13.00;99.90;;;;;;4897774;29;20115;-76
2024/04/02 00:32:54;;;;;;;;;;;13.00;99.90;;;;;;4897885;29;20487;-76
2024/04/02 00:35:20;;;;;;;7.95;3.35;;;13.00;99.90;;;;;;4897869;29;19942;-76
2024/04/02 00:37:53;;;;;;;5.18;2.53;;;13.00;99.90;;;;;;4897265;29;20028;-76
2024/04/02 00:40:19;;;;;;;3.65;2.03;;;13.00;99.90;;;;;;4896191;29;20039;-76
2024/04/02 00:42:45;;;;;;;6.38;2.20;;;12.90;99.90;;;;;;4895774;29;20033;-76
2024/04/02 00:45:12;;;;;;;2.80;1.95;;;12.80;99.90;;;;;;4897560;29;20084;-76
2024/04/02 00:47:39;;;;;;;4.43;1.95;;;12.70;99.90;;;;;;4897340;29;20461;-76
2024/04/02 00:50:06;;;;;;;2.22;2.00;;;12.70;99.90;;;;;;4897513;29;20494;-76
2024/04/02 00:52:32;;;;;;;2.97;2.20;;;12.70;99.90;;;;;;4895635;29;20033;-76
2024/04/02 00:54:59;;;;;;;2.67;2.05;;;12.60;99.90;;;;;;4897327;29;20036;-76
2024/04/02 00:57:25;;;;;;;5.30;2.58;;;12.50;99.90;;;;;;4895524;29;20398;-77
2024/04/02 00:59:51;;;;;;;4.43;2.70;;;12.50;99.90;;;;;;4897612;29;20060;-76
2024/04/02 01:02:18;;;;;;;5.05;2.13;;;12.50;99.90;;;;;;4896288;29;20419;-76
2024/04/02 01:04:44;;;;;;;2.30;2.10;;;12.40;99.90;;;;;;4897310;29;20036;-76
2024/04/02 01:07:11;;;;;;;3.80;2.05;;;12.40;99.90;;;;;;4895108;29;20033;-76
2024/04/02 01:09:56;;;;;;;3.35;2.30;;;12.40;99.90;;;;;;4897143;29;20483;-75
2024/04/02 01:12:21;;;;;;;2.60;1.83;;;12.40;99.90;;;;;;4888452;29;20037;-76
2024/04/02 01:14:47;;;;;;;2.13;1.80;;;12.40;99.90;;;;;;4897241;29;20459;-76
2024/04/02 01:17:15;;;;;;;2.85;2.65;;;12.40;99.90;;;;;;4896838;29;20044;-76
2024/04/02 01:19:41;;;;;;;3.22;2.13;;;12.40;99.90;;;;;;4895268;29;20487;-76
2024/04/02 01:22:07;;;;;;;2.80;2.30;;;12.30;99.90;;;;;;4896755;29;20049;-76
2024/04/02 01:24:32;;;;;;;3.95;2.58;;;12.30;99.90;;;;;;4896834;29;20039;-76
2024/04/02 01:26:59;;;;;;;3.90;2.20;;;12.20;99.90;;;;;;4896638;29;20043;-76
2024/04/02 01:29:25;;;;;;;2.65;2.25;;;12.20;99.90;;;;;;4895956;29;20021;-76
2024/04/02 01:31:53;;;;;;;5.68;2.80;;;12.10;99.90;;;;;;4895136;29;20112;-76
2024/04/02 01:34:19;;;;;;;2.50;2.20;;;12.00;99.90;;;;;;4896464;29;20043;-76
2024/04/02 01:36:44;;;;;;;2.80;2.60;;;12.00;99.90;;;;;;4890962;29;20500;-77
2024/04/02 01:39:10;;;;;;;2.22;2.00;;;11.90;99.90;;;;;;4891466;29;20039;-77
2024/04/02 01:41:36;;;;;;;2.83;2.63;;;11.90;99.90;;;;;;4895610;29;20032;-76
2024/04/02 01:44:03;;;;;;;2.30;2.05;;;11.90;99.90;;;;;;4896745;29;20055;-76
2024/04/02 01:46:29;;;;;;;2.88;2.50;;;11.90;99.90;;;;;;4896130;29;20379;-77
2024/04/02 01:48:55;;;;;;;2.70;2.50;;;11.90;99.90;;;;;;4896522;29;20041;-76
2024/04/02 01:51:21;;;;;;;3.35;2.42;;;11.90;99.90;;;;;;4899566;29;20103;-77
2024/04/02 01:53:47;;;;;;;4.25;2.67;;;11.80;99.90;;;;;;4901019;29;20112;-76
2024/04/02 01:56:12;;;;;;;2.42;2.33;;;11.70;99.90;;;;;;4900310;29;20449;-76
2024/04/02 01:58:38;;;;;;;3.47;3.10;;;11.60;99.90;;;;;;4900274;29;20053;-76
2024/04/02 02:01:04;;;;;;;2.40;2.30;;;11.40;99.90;;;;;;4898902;29;20059;-76
2024/04/02 02:03:29;;;;;;;3.13;1.90;;;11.20;99.90;;;;;;4898804;29;20040;-76
2024/04/02 02:05:55;;;;;;;2.08;1.92;;;11.10;99.90;;;;;;4900879;29;20037;-76
2024/04/02 02:08:20;;;;;;;2.20;2.10;;;11.00;99.90;;;;;;4898772;29;20483;-77
2024/04/02 02:10:46;;;;;;;1.95;1.83;;;11.00;99.90;;;;;;4899097;29;20491;-77
2024/04/02 02:13:11;;;;;;;2.33;2.17;;;10.90;99.90;;;;;;4897931;29;20021;-77
2024/04/02 02:15:37;;;;;;;2.38;2.25;;;10.70;99.90;;;;;;4898960;29;20659;-77
2024/04/02 02:18:03;;;;;;;2.75;2.20;;;10.60;99.90;;;;;;4899487;29;20027;-77
2024/04/02 02:20:29;;;;;;;4.00;2.33;;;10.70;99.90;;;;;;4900571;29;20055;-76
2024/04/02 02:22:55;;;;;;;3.25;2.22;;;10.70;99.90;;;;;;4899850;29;20120;-76
2024/04/02 02:25:20;;;;;;;2.58;1.90;;;10.60;99.90;;;;;;4897648;29;20067;-75
2024/04/02 02:27:46;;;;;;;2.03;1.83;;;10.60;99.90;;;;;;4899374;29;20479;-76
2024/04/02 02:30:12;;;;;;;3.30;1.45;;;10.40;99.90;;;;;;4899548;29;20044;-75
2024/04/02 02:32:37;;;;;;;1.30;1.20;;;10.30;99.90;;;;;;4897729;29;20474;-75
2024/04/02 02:35:03;;;;;;;1.70;1.60;;;10.10;99.90;;;;;;4899744;29;20033;-75
2024/04/02 02:37:29;;;;;;;2.83;1.20;;;10.00;99.90;;;;;;4899211;29;20024;-76
2024/04/02 02:39:56;;;;;;;1.85;1.75;;;10.00;99.90;;;;;;4899709;29;20037;-76
2024/04/02 02:42:23;;;;;;;1.80;1.17;;;9.90;99.90;;;;;;4897918;29;20032;-76
2024/04/02 02:44:49;;;;;;;1.98;1.38;;;9.80;99.90;;;;;;4899265;29;20076;-77
2024/04/02 02:47:15;;;;;;;1.50;1.35;;;9.80;99.90;;;;;;4894376;29;20053;-77
2024/04/02 02:49:41;;;;;;;1.70;1.20;;;9.90;99.90;;;;;;4893915;29;20491;-77
2024/04/02 02:52:06;;;;;;;0.90;0.90;;;9.90;99.90;;;;;;4899431;29;20115;-77
2024/04/02 02:54:32;;;;;;;0.80;0.80;;;9.80;99.90;;;;;;4899437;29;20028;-78
2024/04/02 02:56:57;;;;;;;4.18;1.13;;;9.80;99.90;;;;;;4897817;29;20497;-77
2024/04/02 02:59:23;;;;;;;1.60;1.05;;;9.90;99.90;;;;;;4899630;29;20028;-77
2024/04/02 03:01:49;;;;;;;1.38;0.90;;;9.80;99.90;;;;;;4896664;29;20053;-77
2024/04/02 03:04:14;;;;;;;1.52;0.77;;;9.80;99.90;;;;;;4913556;29;20582;-76
2024/04/02 03:06:40;;;;;;;0.55;0.55;;;9.70;99.90;;;;;;4897773;29;20039;-77
2024/04/02 03:09:05;;;;;;;0.70;0.70;;;9.70;99.90;;;;;;4899242;29;20029;-77
2024/04/02 03:11:31;;;;;;;0.88;0.60;;;9.60;99.90;;;;;;4898169;29;20374;-77
2024/04/02 03:14:00;;;;;;;0.77;0.77;;;9.60;99.90;;;;;;4897844;29;20037;-77
2024/04/02 03:16:26;;;;;;;0.70;0.70;;;9.60;99.90;;;;;;4899164;29;20092;-77
2024/04/02 03:18:51;;;;;;;0.95;0.90;;;9.50;99.90;;;;;;4896580;29;20052;-77
2024/04/02 03:21:17;;;;;;;1.27;0.77;;;9.60;99.90;;;;;;4898557;29;20092;-76
2024/04/02 03:23:43;;;;;;;0.73;0.70;;;9.50;99.90;;;;;;4899820;29;20029;-76
2024/04/02 03:26:09;;;;;;;0.70;0.70;;;9.50;99.90;;;;;;4898538;29;20443;-76
2024/04/02 03:28:34;;;;;;;1.08;0.95;;;9.40;99.90;;;;;;4898862;29;20488;-76
2024/04/02 03:31:01;;;;;;;0.70;0.70;;;9.40;99.90;;;;;;4897835;29;20414;-77
2024/04/02 03:33:27;;;;;;;0.77;0.77;;;9.20;99.90;;;;;;4897259;29;20202;-78
2024/04/02 03:35:53;;;;;;;0.80;0.80;;;9.20;99.90;;;;;;4899212;29;20032;-78
2024/04/02 03:38:19;;;;;;;1.15;0.90;;;9.10;99.90;;;;;;4897010;29;20036;-77
2024/04/02 03:40:47;;;;;;;0.90;0.90;;;9.10;99.90;;;;;;4897556;29;20056;-77
2024/04/02 03:43:13;;;;;;;1.33;0.95;;;9.00;99.90;;;;;;4896974;29;20443;-77
2024/04/02 03:45:40;;;;;;;1.27;1.17;;;9.00;99.90;;;;;;4898787;29;20029;-77
2024/04/02 03:48:07;;;;;;;0.70;0.70;;;8.90;99.90;;;;;;4898274;29;20032;-77
2024/04/02 03:50:33;;;;;;;0.82;0.70;;;8.90;99.90;;;;;;4913247;29;20032;-77
2024/04/02 03:52:59;;;;;;;0.80;0.80;;;8.90;99.90;;;;;;4896867;29;20029;-77
2024/04/02 03:55:24;;;;;;;1.38;1.27;;;8.90;99.90;;;;;;4912800;29;20040;-78
2024/04/02 03:57:50;;;;;;;0.95;0.80;;;8.80;99.90;;;;;;4897903;29;20039;-77
2024/04/02 04:00:15;;;;;;;1.48;0.98;;;8.70;99.90;;;;;;4898243;29;21974;-78
2024/04/02 04:02:41;;;;;;;1.05;1.05;;;8.80;99.90;;;;;;4898741;29;20056;-77
2024/04/02 04:05:07;;;;;;;0.80;0.80;;;8.70;99.90;;;;;;4898185;29;20033;-78
2024/04/02 04:07:32;;;;;;;1.30;0.82;;;8.80;99.90;;;;;;4897333;29;20043;-78
2024/04/02 04:09:58;;;;;;;2.53;1.13;;;8.70;99.90;;;;;;4897198;29;20047;-77
2024/04/02 04:12:23;;;;;;;0.98;0.98;;;8.70;99.90;;;;;;4897304;29;20028;-77
2024/04/02 04:14:50;;;;;;;1.88;1.30;;;8.70;99.90;;;;;;4898629;29;20032;-77
2024/04/02 04:17:16;;;;;;;1.13;1.13;;;8.70;99.90;;;;;;4896230;29;20032;-77
2024/04/02 04:19:42;;;;;;;1.30;1.20;;;8.60;99.90;;;;;;4898096;29;20025;-76
2024/04/02 04:22:07;;;;;;;1.45;1.35;;;8.60;99.90;;;;;;4897291;29;20398;-76
2024/04/02 04:24:33;;;;;;;1.52;1.42;;;8.70;99.90;;;;;;4898015;29;20031;-77
2024/04/02 04:26:58;;;;;;;1.70;1.60;;;8.60;99.90;;;;;;4896113;29;20036;-77
2024/04/02 04:29:24;;;;;;;1.83;1.40;;;8.60;99.90;;;;;;4898354;29;20028;-76
2024/04/02 04:31:49;;;;;;;1.70;1.60;;;8.60;99.90;;;;;;4896164;29;20116;-77
2024/04/02 04:34:17;;;;;;;1.42;1.42;;;8.60;99.90;;;;;;4897717;29;20436;-77
2024/04/02 04:36:42;;;;;;;2.53;1.77;;;8.60;99.90;;;;;;4897100;29;20102;-77
2024/04/02 04:39:08;;;;;;;1.40;1.38;;;8.60;99.90;;;;;;4895799;29;20060;-76
2024/04/02 04:41:37;;;;;;;1.90;1.70;;;8.60;99.90;;;;;;4897159;29;20483;-79
2024/04/02 04:44:02;;;;;;;1.90;1.80;;;8.50;99.90;;;;;;4896271;29;20402;-79
2024/04/02 04:46:28;;;;;;;2.08;1.88;;;8.60;99.90;;;;;;4895568;29;20045;-79
2024/04/02 04:48:54;;;;;;;2.25;2.15;;;8.60;99.90;;;;;;4896016;29;20052;-79
2024/04/02 04:51:20;;;;;;;1.90;1.80;;;8.70;99.90;;;;;;4895493;29;20041;-79
2024/04/02 04:53:46;;;;;;;2.00;1.90;;;8.70;99.90;;;;;;4897795;29;20072;-78
2024/04/02 04:56:11;;;;;;;2.70;1.88;;;8.70;99.90;;;;;;4895084;29;20107;-77
2024/04/02 04:58:37;;;;;;;1.85;1.75;;;8.80;99.90;;;;;;4894412;29;20056;-77
2024/04/02 05:01:03;;;;;;;2.45;1.52;;;8.80;99.90;;;;;;4896495;29;20040;-77
2024/04/02 05:03:29;;;;;;;3.08;1.40;;;8.80;99.90;;;;;;4895619;29;20554;-76
2024/04/02 05:06:06;;;;;;;1.75;1.65;;;8.80;99.90;;;;;;4896319;29;20124;-77
2024/04/02 05:08:33;;;;;;;1.90;1.80;;;8.80;99.90;;;;;;4889374;29;20174;-77
2024/04/02 05:11:00;;;;;;;2.63;1.40;;;8.90;99.90;;;;;;4896906;29;20039;-78
2024/04/02 05:13:27;;;;;;;1.73;1.63;;;8.80;99.90;;;;;;4911339;29;20036;-77
2024/04/02 05:15:53;;;;;;;3.10;1.50;;;8.80;99.90;;;;;;4896706;29;20521;-77
2024/04/02 05:18:18;;;;;;;4.72;1.40;;;8.90;99.90;;;;;;4896799;29;20032;-77
2024/04/02 05:20:44;;;;;;;1.80;1.70;;;9.00;99.90;;;;;;4895982;29;20036;-77
2024/04/02 05:23:11;;;;;;;1.90;1.80;;;8.80;99.90;;;;;;4888012;29;20044;-77
2024/04/02 05:25:37;;;;;;;1.67;1.58;;;8.80;99.90;;;;;;4896116;29;20422;-77
2024/04/02 05:28:03;;;;;;;1.80;1.70;;;8.80;99.90;;;;;;4896393;29;20029;-77
2024/04/02 05:30:29;;;;;;;2.30;2.10;;;8.70;99.90;;;;;;4896724;29;20108;-77
2024/04/02 05:32:55;;;;;;;3.13;2.28;;;8.80;99.90;;;;;;4897104;29;20109;-77
2024/04/02 05:35:21;;;;;;;2.22;2.10;;;8.70;99.90;;;;;;4895353;29;20494;-77
2024/04/02 05:37:51;;;;;;;2.45;1.92;;;8.80;99.90;;;;;;4896475;29;20554;-77
2024/04/02 05:40:20;;;;;;;1.60;1.50;;;8.60;99.90;;;;;;4891031;29;20044;-75
2024/04/02 05:42:46;;;;;;;3.92;1.80;;;8.60;99.90;;;;;;4894117;29;20451;-78
2024/04/02 05:45:15;;;;;;;1.80;1.70;;;8.60;99.90;;;;;;4910278;29;20032;-78
2024/04/02 05:47:42;;;;;;;2.00;1.90;;;8.50;99.90;;;;;;4896250;29;20025;-77
2024/04/02 05:50:08;;;;;;;1.70;1.60;;;8.50;99.90;;;;;;4895765;29;20044;-78
2024/04/02 05:52:34;;;;;;;1.90;1.40;;;8.50;99.90;;;;;;4895859;29;20439;-77
2024/04/02 05:55:00;;;;;;;3.42;2.25;;;8.50;99.90;;;;;;4895750;29;20165;-77
2024/04/02 05:57:26;;;;;;;1.90;1.80;;;8.50;99.90;;;;;;4896008;29;20107;-77
2024/04/02 05:59:52;;;;;;;1.85;1.75;;;8.50;99.90;;;;;;4897020;29;20148;-77
2024/04/02 06:02:19;;;;;;;2.28;1.98;;;8.40;99.90;;;;;;4896085;29;20115;-78
2024/04/02 06:04:45;;;;;;;1.98;1.85;;;8.40;99.90;;;;;;4896412;29;20044;-78
2024/04/02 06:07:11;;;;;;;2.75;2.22;;;8.40;99.90;;;;;;4895868;29;20043;-78
2024/04/02 06:09:37;;;;;;;2.55;2.35;;;8.40;99.90;;;;;;4894663;29;20044;-78
2024/04/02 06:12:04;;;;;;;3.58;2.45;;;8.30;99.90;;;;;;4895114;29;20115;-78
2024/04/02 06:14:31;;;;;;;3.50;2.63;;;8.30;99.90;;;;;;4896858;29;20486;-78
2024/04/02 06:16:57;;;;;;;2.80;2.58;;;8.20;99.90;;;;;;4896319;29;20100;-77
2024/04/02 06:19:23;;;;;;;3.20;2.85;;;8.20;99.90;;;;;;4894957;29;20490;-78
2024/04/02 06:21:48;;;;;;;3.67;3.35;;;8.20;99.90;;;;;;4894803;29;20044;-76
2024/04/02 06:24:14;;;;;;;3.85;3.45;;;8.10;99.90;;;;;;4896175;29;20371;-76
2024/04/02 06:26:40;;;;;;;3.85;3.45;;;8.10;99.90;;;;;;4896462;29;20017;-76
2024/04/02 06:29:05;;;;;;;5.18;3.70;;;8.10;99.90;;;;;;4892642;29;20498;-77
2024/04/02 06:31:31;;;;;;;4.50;3.60;;;8.10;99.90;;;;;;4892052;29;20037;-77
2024/04/02 06:33:57;;;;;;;4.30;3.90;;;8.10;99.90;;;;;;4910695;29;20069;-77
2024/04/02 06:36:26;;;;;;;4.35;3.95;;;8.10;99.90;;;;;;4897053;29;20400;-77
2024/04/02 06:38:51;;;;;;;4.53;3.72;;;8.10;99.90;;;;;;4898517;29;20032;-77
2024/04/02 06:41:17;;;;;;;5.60;4.00;;;8.10;99.90;;;;;;4898623;29;20044;-77
2024/04/02 06:43:43;;;;;;;4.30;3.25;;;8.10;99.90;;;;;;4913922;29;20060;-77
2024/04/02 06:46:26;;;;;;;4.53;3.58;;;8.00;99.90;;;;;;4895140;29;20036;-78
2024/04/02 06:48:52;;;;;;;3.90;3.60;;;8.10;99.90;;;;;;4912373;29;20048;-78
2024/04/02 06:51:18;;;;;;;4.63;3.75;;;8.10;99.90;;;;;;4897108;29;20068;-78
2024/04/02 06:53:44;;;;;;;4.93;3.78;;;8.20;99.90;;;;;;4895966;29;20088;-77
2024/04/02 06:56:10;;;;;;;4.72;4.25;;;8.20;99.90;;;;;;4897417;29;20040;-77
2024/04/02 06:58:37;;;;;;;5.47;3.88;;;8.10;99.90;;;;;;4896235;29;20123;-77
2024/04/02 07:01:03;;;;;;;5.25;3.65;;;8.20;99.90;;;;;;4895787;29;20049;-77
2024/04/02 07:03:29;;;;;;;3.97;3.63;;;8.10;99.90;;;;;;4897490;29;20044;-77
2024/04/02 07:05:54;;;;;;;4.63;3.80;;;8.00;99.90;;;;;;4897615;29;20509;-77
2024/04/02 07:08:28;;;;;;;4.38;3.47;;;8.00;99.90;;;;;;4896969;29;20044;-78
2024/04/02 07:11:04;;;;;;;3.60;3.15;;;8.00;99.90;;;;;;4895778;29;20112;-76
2024/04/02 07:13:31;;;;;;;4.15;3.13;;;8.00;99.90;;;;;;4897354;29;20037;-76
2024/04/02 07:15:57;;;;;;;3.35;3.05;;;8.00;99.90;;;;;;4898383;29;20063;-78
2024/04/02 07:18:23;;;;;;;3.95;3.55;;;8.00;99.90;;;;;;4911865;29;20059;-77
2024/04/02 07:21:02;;;;;;;6.30;3.60;;;8.10;99.90;;;;;;4896701;29;20055;-78
2024/04/02 07:23:28;;;;;;;3.70;3.40;;;8.10;99.90;;;;;;4895446;29;20519;-77
2024/04/02 07:25:53;;;;;;;3.83;3.33;;;8.10;99.90;;;;;;4896434;29;20075;-76
2024/04/02 07:28:23;;;;;;;4.40;4.00;;;8.00;99.90;;;;;;4897297;29;20033;-77
2024/04/02 07:30:49;;;;;;;5.32;3.90;;;7.90;99.90;;;;;;4913012;29;20044;-77
2024/04/02 07:33:15;;;;;;;4.93;4.18;;;7.90;99.90;;;;;;4898057;29;20032;-77
2024/04/02 07:35:42;;;;;;;4.30;3.80;;;7.80;99.90;;;;;;4898409;29;20039;-77
2024/04/02 07:38:08;;;;;;;4.90;4.35;;;7.80;99.90;;;;;;4895866;29;20499;-76
2024/04/02 07:40:35;;;;;;;4.68;4.28;;;7.80;99.90;;;;;;4896049;29;20041;-77
2024/04/02 07:43:00;;;;;;;4.95;4.35;;;7.80;99.90;;;;;;4898262;29;20153;-76
2024/04/02 07:45:26;;;;;;;5.18;4.28;;;7.70;99.90;;;;;;4897476;29;20115;-76
2024/04/02 07:47:52;;;;;;;5.63;4.63;;;7.70;99.90;;;;;;4897813;29;20064;-76
2024/04/02 07:50:17;;;;;;;5.20;4.47;;;7.50;99.90;;;;;;4897886;29;20127;-76
2024/04/02 07:52:44;;;;;;;4.78;4.38;;;7.50;99.90;;;;;;4897455;29;20052;-76
2024/04/02 07:55:10;;;;;;;6.07;4.38;;;7.40;99.90;;;;;;4897792;29;20035;-76
2024/04/02 07:57:35;;;;;;;4.75;4.20;;;7.40;99.90;;;;;;4897919;29;20440;-76
2024/04/02 08:00:01;;;;;;;5.95;5.10;;;7.40;99.90;;;;;;4896898;29;20530;-76
2024/04/02 08:02:27;;;;;;;7.15;4.72;;;7.40;99.90;;;;;;4892233;29;20838;-76
2024/04/02 08:04:52;;;;;;;6.25;5.10;;;7.50;99.90;;;;;;4898385;29;20119;-76
2024/04/02 08:07:19;;;;;;;62.08;25.88;;;7.50;99.90;;;;;;4896201;29;20107;-75
2024/04/02 08:09:45;;;;;;;80.22;45.75;;;7.50;99.90;;;;;;4899391;29;20044;-75
2024/04/02 08:12:11;;;;;;;100.55;70.57;;;7.50;99.90;;;;;;4894443;29;20024;-77
2024/04/02 08:14:37;;;;;;;14.00;11.20;;;7.50;99.90;;;;;;4897988;29;20024;-77
2024/04/02 08:17:03;;;;;;;14.30;10.68;;;7.50;99.90;;;;;;4896734;29;20398;-76
2024/04/02 08:19:29;;;;;;;10.52;6.82;;;7.50;99.90;;;;;;4897051;29;20037;-78
2024/04/02 08:21:55;;;;;;;33.53;19.30;;;7.50;99.90;;;;;;4896654;29;20037;-77
2024/04/02 08:24:21;;;;;;;75.35;38.65;;;7.60;99.90;;;;;;4897563;29;20115;-77
2024/04/02 08:26:47;;;;;;;46.47;20.58;;;7.70;99.90;;;;;;4896904;29;20032;-77
2024/04/02 08:29:14;;;;;;;337.70;124.45;;;7.70;99.90;;;;;;4895843;29;20051;-77
2024/04/02 08:31:39;;;;;;;344.15;125.22;;;7.70;99.90;;;;;;4895520;29;20092;-77
2024/04/02 08:34:05;;;;;;;368.58;170.02;;;7.70;99.90;;;;;;4896741;29;20029;-76
2024/04/02 08:36:31;;;;;;;131.13;58.70;;;7.70;99.90;;;;;;4894813;29;20547;-76
2024/04/02 08:38:56;;;;;;;53.50;24.27;;;7.70;99.90;;;;;;4895408;29;20076;-77
2024/04/02 08:41:26;;;;;;;401.98;184.50;;;7.70;99.90;;;;;;4896205;29;20594;-77
2024/04/02 08:43:57;;;;;;;206.10;84.13;;;7.70;99.90;;;;;;4895068;29;20037;-76
2024/04/02 08:46:26;;;;;;;84.22;35.00;;;7.60;99.90;;;;;;4896174;29;20128;-77
2024/04/02 08:48:56;;;;;;;117.03;45.78;;;7.70;99.90;;;;;;4895277;29;20032;-76
2024/04/02 08:51:22;;;;;;;92.63;36.80;;;7.70;99.90;;;;;;4895361;29;20049;-76
2024/04/02 08:53:48;;;;;;;413.33;161.35;;;7.70;99.90;;;;;;4896761;29;20064;-76
2024/04/02 08:56:17;;;;;;;130.82;48.22;;;7.70;99.90;;;;;;4896066;29;20056;-77
2024/04/02 08:58:51;;;;;;;41.30;17.80;;;7.70;99.90;;;;;;4896085;29;20402;-77
2024/04/02 09:01:17;;;;;;;408.60;139.95;;;7.70;99.90;;;;;;4895374;29;20085;-76
2024/04/02 09:03:46;;;;;;;47.70;20.63;;;7.80;99.90;;;;;;4883806;29;20074;-77
2024/04/02 09:06:11;;;;;;;240.35;82.50;;;7.80;99.90;;;;;;4894256;29;20031;-76
2024/04/02 09:08:47;;;;;;;53.40;22.45;;;7.80;99.90;;;;;;4897414;29;20028;-76
2024/04/02 09:11:13;;;;;;;352.17;121.82;;;7.90;99.90;;;;;;4896331;29;20040;-76
2024/04/02 09:13:39;;;;;;;77.55;30.63;;;7.90;99.90;;;;;;4896979;29;20379;-77
2024/04/02 09:16:06;;;;;;;287.55;94.80;;;7.80;99.90;;;;;;4896416;29;20064;-76
2024/04/02 09:18:35;;;;;;;40.88;16.40;;;7.80;99.90;;;;;;4895796;29;20430;-76
2024/04/02 09:21:01;;;;;;;44.15;16.90;;;7.90;99.90;;;;;;4909904;29;20131;-76
2024/04/02 09:23:27;;;;;;;33.78;15.57;;;8.00;99.90;;;;;;4892140;29;20104;-77
2024/04/02 09:25:54;;;;;;;17.70;9.63;;;8.00;99.90;;;;;;4893957;29;20040;-77
2024/04/02 09:28:20;;;;;;;47.58;17.48;;;7.90;99.90;;;;;;4894348;29;20040;-77
2024/04/02 09:30:46;;;;;;;12.23;7.15;;;7.90;99.90;;;;;;4894884;29;20037;-77
2024/04/02 09:33:11;;;;;;;34.00;14.40;;;8.00;99.90;;;;;;4895541;29;20028;-76
2024/04/02 09:35:58;;;;;;;24.08;10.20;;;8.00;99.90;;;;;;4896155;29;20012;-77
2024/04/02 09:38:25;;;;;;;45.13;18.35;;;8.10;99.90;;;;;;4896123;29;20055;-76
2024/04/02 09:40:51;;;;;;;28.20;13.02;;;8.20;99.90;;;;;;4895472;29;20417;-78
2024/04/02 09:43:18;;;;;;;22.60;11.80;;;8.20;99.90;;;;;;4896037;29;20036;-78
2024/04/02 09:45:48;;;;;;;24.33;13.18;;;8.30;99.90;;;;;;4891789;29;20085;-78
2024/04/02 09:48:22;;;;;;;32.97;16.13;;;8.30;99.90;;;;;;4894264;29;20024;-78
2024/04/02 09:50:55;;;;;;;24.73;12.55;;;8.30;99.90;;;;;;4890247;29;20415;-78
2024/04/02 09:53:20;;;;;;;;;;;8.30;99.90;;;;;;4909290;29;20297;-78
2024/04/02 09:55:48;;;;;;;17.60;11.20;;;8.40;99.90;;;;;;4895425;29;19998;-77
2024/04/02 09:58:16;;;;;;;11.10;8.32;;;8.40;99.90;;;;;;4893100;29;20096;-78
2024/04/02 10:00:46;;;;;;;34.97;18.65;;;8.40;99.90;;;;;;4895915;29;20049;-77
2024/04/02 10:03:13;;;;;;;15.10;9.40;;;8.40;99.90;;;;;;4892653;29;20056;-78
2024/04/02 10:05:39;;;;;;;17.08;10.50;;;8.50;99.90;;;;;;4896635;29;20048;-78
2024/04/02 10:08:07;;;;;;;12.57;7.65;;;8.40;99.90;;;;;;4895580;29;20033;-78
2024/04/02 10:10:40;;;;;;;28.33;15.70;;;8.40;99.90;;;;;;4896614;29;20044;-78
2024/04/02 10:13:07;;;;;;;21.98;13.98;;;8.40;99.90;;;;;;4899482;29;20052;-77
2024/04/02 10:15:33;;;;;;;17.90;11.65;;;8.50;99.90;;;;;;4900153;29;20052;-77
2024/04/02 10:18:00;;;;;;;56.13;29.65;;;8.50;99.90;;;;;;4897846;29;20028;-78
2024/04/02 10:20:31;;;;;;;21.02;14.18;;;8.50;99.90;;;;;;4895040;29;20029;-77
2024/04/02 10:23:02;;;;;;;17.13;11.05;;;8.60;99.90;;;;;;4898231;29;20587;-77
2024/04/02 10:25:31;;;;;;;20.05;14.35;;;8.60;99.90;;;;;;4900174;29;20065;-77
2024/04/02 10:27:59;;;;;;;14.52;8.40;;;8.60;99.90;;;;;;4899130;29;20085;-77
2024/04/02 10:30:26;;;;;;;10.90;8.65;;;8.60;99.90;;;;;;4896687;29;20037;-78
2024/04/02 10:32:53;;;;;;;11.85;7.93;;;8.60;99.90;;;;;;5139959;23;20143;-73
2024/04/02 10:35:21;;;;;;;10.20;8.63;;;8.60;99.90;;;;;;4892482;29;20478;-73
2024/04/02 10:37:50;;;;;;;11.73;8.63;;;8.60;99.90;;;;;;4894899;29;20064;-73
2024/04/02 10:40:17;;;;;;;15.70;10.40;;;8.60;99.90;;;;;;4899032;29;20044;-73
2024/04/02 10:42:44;;;;;;;18.00;10.45;;;8.60;99.90;;;;;;4890372;29;20458;-75
2024/04/02 10:45:10;;;;;;;15.68;10.48;;;8.70;99.90;;;;;;4895621;29;20084;-74
2024/04/02 10:47:36;;;;;;;16.17;10.93;;;8.70;99.90;;;;;;4899310;29;20025;-74
2024/04/02 10:50:05;;;;;;;13.98;10.75;;;8.70;99.90;;;;;;4895014;29;20033;-74
2024/04/02 10:52:39;;;;;;;12.27;9.85;;;8.80;99.90;;;;;;4899154;29;20044;-73
2024/04/02 10:55:05;;;;;;;12.55;8.45;;;8.70;99.90;;;;;;4899117;29;20033;-74
2024/04/02 10:57:34;;;;;;;10.35;7.95;;;8.70;99.90;;;;;;4899018;29;20037;-74
2024/04/02 11:00:02;;;;;;;18.98;13.82;;;8.70;99.90;;;;;;4899141;29;20028;-73
2024/04/02 11:02:29;;;;;;;8.63;7.50;;;8.70;99.90;;;;;;4898939;29;20035;-73
2024/04/02 11:04:56;;;;;;;10.55;8.10;;;8.70;99.90;;;;;;4899189;29;20454;-73
2024/04/02 11:07:24;;;;;;;9.07;7.57;;;8.60;99.90;;;;;;4890355;29;20033;-73
2024/04/02 11:09:50;;;;;;;13.13;9.50;;;8.50;99.90;;;;;;4896732;29;20033;-74
2024/04/02 11:12:16;;;;;;;8.60;7.38;;;8.50;99.90;;;;;;4899063;29;20032;-72
2024/04/02 11:14:41;;;;;;;12.93;8.32;;;8.50;99.90;;;;;;4899064;29;20024;-72
2024/04/02 11:17:08;;;;;;;11.57;8.07;;;8.40;99.90;;;;;;4897208;29;20040;-72
2024/04/02 11:19:36;;;;;;;11.48;8.63;;;8.40;99.90;;;;;;4898711;29;20494;-72
2024/04/02 11:24:58;;;;;;;15.43;11.65;;;8.40;99.90;;;;;;4898675;29;20153;-73
2024/04/02 11:27:26;;;;;;;12.68;10.18;;;8.40;99.90;;;;;;4898285;29;20037;-72
2024/04/02 11:29:53;;;;;;;91.75;31.00;;;8.40;99.90;;;;;;4897840;29;20394;-72
2024/04/02 11:32:22;;;;;;;175.70;55.92;;;8.40;99.90;;;;;;4897626;29;20037;-71
2024/04/02 11:34:56;;;;;;;35.13;18.27;;;8.50;99.90;;;;;;4898825;29;20061;-72
2024/04/02 11:37:22;;;;;;;64.07;25.00;;;8.50;99.90;;;;;;4897262;29;20092;-72
2024/04/02 11:39:48;;;;;;;57.20;22.45;;;8.60;99.90;;;;;;4898296;29;20427;-71
2024/04/02 11:42:13;;;;;;;62.15;27.17;;;8.60;99.90;;;;;;4892402;29;20380;-72
2024/04/02 11:44:39;;;;;;;49.72;20.83;;;8.60;99.90;;;;;;4898900;29;20090;-72
2024/04/02 11:47:04;;;;;;;31.15;14.77;;;8.60;99.90;;;;;;4897432;29;20024;-72
2024/04/02 11:49:30;;;;;;;39.13;17.65;;;8.70;99.90;;;;;;4898356;29;20111;-72
2024/04/02 11:51:56;;;;;;;53.08;22.77;;;8.80;99.90;;;;;;4898096;29;20093;-73
2024/04/02 11:54:21;;;;;;;79.63;30.02;;;8.90;99.90;;;;;;4897939;29;20029;-73
2024/04/02 12:02:16;;;;;;;64.07;27.52;;;9.10;99.90;;;;;;4895022;29;20048;-72
2024/04/02 12:04:42;;;;;;;79.60;31.75;;;9.20;99.90;;;;;;4896714;29;20033;-72
2024/04/02 12:07:07;;;;;;;85.43;34.92;;;9.20;99.90;;;;;;4892158;29;20029;-72
2024/04/02 12:09:33;;;;;;;106.93;44.22;;;9.30;99.90;;;;;;4897996;29;20091;-72
2024/04/02 12:11:59;;;;;;;96.45;39.65;;;9.40;99.90;;;;;;4891489;29;20024;-72
2024/04/02 12:14:24;;;;;;;64.88;28.35;;;9.40;99.90;;;;;;4896353;29;20024;-72
2024/04/02 12:16:50;;;;;;;60.17;26.15;;;9.40;99.90;;;;;;4894563;29;20046;-73
2024/04/02 12:19:15;;;;;;;66.72;27.38;;;9.40;99.90;;;;;;4896617;29;20517;-72
2024/04/02 12:21:41;;;;;;;51.08;25.10;;;9.30;99.90;;;;;;4895487;29;20044;-73
2024/04/02 12:24:07;;;;;;;100.60;42.53;;;9.30;99.90;;;;;;4895444;29;20029;-72
2024/04/02 12:26:32;;;;;;;39.47;19.35;;;9.20;99.90;;;;;;4888193;29;20032;-73
2024/04/02 12:28:58;;;;;;;34.50;18.13;;;9.20;99.90;;;;;;4894223;29;20049;-73
2024/04/02 12:31:23;;;;;;;38.92;19.70;;;9.20;99.90;;;;;;4893701;29;20028;-73
2024/04/02 12:33:49;;;;;;;32.28;18.45;;;9.30;99.90;;;;;;4894238;29;20458;-73
2024/04/02 12:36:15;;;;;;;19.42;13.43;;;9.30;99.90;;;;;;4895860;29;20053;-72
2024/04/02 12:38:40;;;;;;;12.80;9.68;;;9.40;99.90;;;;;;4896092;29;20096;-73
2024/04/02 12:41:06;;;;;;;18.00;11.63;;;9.50;99.90;;;;;;4895044;29;20526;-73
2024/04/02 12:43:31;;;;;;;48.80;23.98;;;9.60;99.90;;;;;;4896113;29;20033;-73
2024/04/02 12:45:57;;;;;;;42.55;22.85;;;9.70;99.90;;;;;;4892452;29;20029;-72
2024/04/02 12:48:23;;;;;;;30.75;17.00;;;9.70;99.90;;;;;;4895999;29;20025;-73
2024/04/02 12:50:55;;;;;;;26.45;14.55;;;9.70;99.90;;;;;;4897159;29;20069;-72
2024/04/02 12:53:21;;;;;;;26.33;16.50;;;9.70;99.90;;;;;;4891726;29;20045;-73